createdAt,value
2018-12-09T00:02:10.973Z,0.40
2018-12-09T00:07:17.064Z,0.50
2018-12-09T00:12:21.994Z,0.60
2018-12-09T00:17:26.866Z,0.50
2018-12-09T00:22:30.820Z,0.50
2018-12-09T00:27:33.333Z,0.43
2018-12-09T00:32:35.656Z,0.60
2018-12-09T00:37:38.098Z,0.50
2018-12-09T00:42:43.577Z,0.40
2018-12-09T00:47:44.824Z,0.40
2018-12-09T00:52:47.113Z,0.50
2018-12-09T00:57:49.424Z,0.40
2018-12-09T01:02:51.677Z,0.50
2018-12-09T01:07:53.951Z,0.50
2018-12-09T01:12:56.267Z,0.40
2018-12-09T01:17:58.595Z,0.40
2018-12-09T01:23:00.897Z,0.40
2018-12-09T01:28:03.363Z,0.40
2018-12-09T01:33:05.741Z,0.40
2018-12-09T01:38:08.045Z,0.40
2018-12-09T01:43:10.432Z,0.40
2018-12-09T01:48:12.856Z,0.40
2018-12-09T01:53:26.970Z,0.40
2018-12-09T01:58:29.548Z,0.40
2018-12-09T02:03:32.144Z,0.50
2018-12-09T02:08:34.503Z,0.50
2018-12-09T02:13:36.854Z,0.50
2018-12-09T02:18:39.260Z,0.50
2018-12-09T02:23:41.879Z,0.50
2018-12-09T02:28:44.210Z,0.40
2018-12-09T02:33:46.645Z,0.50
2018-12-09T02:38:49.242Z,0.90
2018-12-09T02:43:51.581Z,0.60
2018-12-09T02:48:53.880Z,0.60
2018-12-09T02:53:56.335Z,0.70
2018-12-09T02:58:58.855Z,0.70
2018-12-09T03:04:01.284Z,0.70
2018-12-09T03:09:06.497Z,0.80
2018-12-09T03:14:09.950Z,1.00
2018-12-09T03:19:12.300Z,0.90
2018-12-09T03:24:14.653Z,0.97
2018-12-09T03:29:17.686Z,0.90
2018-12-09T03:34:19.967Z,0.80
2018-12-09T03:39:22.668Z,0.70
2018-12-09T03:44:24.947Z,0.87
2018-12-09T03:49:27.291Z,0.80
2018-12-09T03:54:29.577Z,0.80
2018-12-09T03:59:31.922Z,0.70
2018-12-09T04:04:35.483Z,0.93
2018-12-09T04:09:38.190Z,0.70
2018-12-09T04:14:40.596Z,0.97
2018-12-09T04:19:42.882Z,0.90
2018-12-09T04:24:45.138Z,0.97
2018-12-09T04:29:47.479Z,1.00
2018-12-09T04:34:49.951Z,1.10
2018-12-09T04:39:52.866Z,0.80
2018-12-09T04:44:55.112Z,0.90
2018-12-09T04:49:57.381Z,0.83
2018-12-09T04:54:59.632Z,0.90
2018-12-09T05:00:13.625Z,1.07
2018-12-09T05:05:15.887Z,0.97
2018-12-09T05:10:18.309Z,0.80
2018-12-09T05:15:20.603Z,1.23
2018-12-09T05:20:22.844Z,1.30
2018-12-09T05:25:25.108Z,1.00
2018-12-09T05:30:27.339Z,1.00
2018-12-09T05:35:29.606Z,0.77
2018-12-09T05:40:49.489Z,0.90
2018-12-09T05:45:51.733Z,0.60
2018-12-09T05:50:54.062Z,0.70
2018-12-09T05:55:57.113Z,0.80
2018-12-09T06:00:59.604Z,0.90
2018-12-09T06:06:01.984Z,0.90
2018-12-09T06:11:04.442Z,1.00
2018-12-09T06:16:06.680Z,1.00
2018-12-09T06:21:08.961Z,1.10
2018-12-09T06:26:11.205Z,1.20
2018-12-09T06:31:13.732Z,1.10
2018-12-09T06:36:16.023Z,1.00
2018-12-09T06:41:18.303Z,1.07
2018-12-09T06:46:20.542Z,0.90
2018-12-09T06:51:22.973Z,1.20
2018-12-09T06:56:26.459Z,1.30
2018-12-09T07:01:30.746Z,1.10
2018-12-09T07:06:34.168Z,1.00
2018-12-09T07:11:36.437Z,1.10
2018-12-09T07:21:54.284Z,1.60
2018-12-09T07:26:56.561Z,1.20
2018-12-09T07:31:58.989Z,1.50
2018-12-09T07:37:01.293Z,1.60
2018-12-09T07:42:03.544Z,1.57
2018-12-09T07:47:06.075Z,1.30
2018-12-09T07:52:08.474Z,1.37
2018-12-09T07:57:11.100Z,1.30
2018-12-09T08:02:13.343Z,1.40
2018-12-09T08:07:15.645Z,1.37
2018-12-09T08:12:18.016Z,1.50
2018-12-09T08:17:20.239Z,1.20
2018-12-09T08:22:22.511Z,1.00
2018-12-09T08:27:24.875Z,1.00
2018-12-09T08:32:27.095Z,1.20
2018-12-09T08:37:29.325Z,0.90
2018-12-09T08:42:31.621Z,0.87
2018-12-09T08:47:33.964Z,0.90
2018-12-09T08:52:36.202Z,0.80
2018-12-09T08:57:38.431Z,0.70
2018-12-09T09:02:40.667Z,1.20
2018-12-09T09:07:43.044Z,0.63
2018-12-09T09:12:45.366Z,0.60
2018-12-09T09:17:47.755Z,0.60
2018-12-09T09:22:50.046Z,0.60
2018-12-09T09:27:53.450Z,0.60
2018-12-09T09:32:55.723Z,0.60
2018-12-09T09:37:58.917Z,0.60
2018-12-09T09:43:01.214Z,0.60
2018-12-09T09:48:04.868Z,0.60
2018-12-09T09:53:07.336Z,0.70
2018-12-09T09:58:09.581Z,0.60
2018-12-09T10:03:12.055Z,0.63
2018-12-09T10:08:14.399Z,0.60
2018-12-09T10:13:16.919Z,0.50
2018-12-09T10:18:19.165Z,0.60
2018-12-09T10:23:21.442Z,0.60
2018-12-09T10:28:24.812Z,0.70
2018-12-09T10:33:27.049Z,0.60
2018-12-09T10:38:29.339Z,0.60
2018-12-09T10:43:31.607Z,0.63
2018-12-09T10:48:33.880Z,0.63
2018-12-09T10:53:36.209Z,0.90
2018-12-09T10:58:38.447Z,0.90
2018-12-09T11:03:40.720Z,1.00
2018-12-09T11:08:42.967Z,0.90
2018-12-09T11:13:45.353Z,1.30
2018-12-09T11:18:47.625Z,0.90
2018-12-09T11:23:49.863Z,1.20
2018-12-09T11:28:52.515Z,1.10
2018-12-09T11:33:54.765Z,1.10
2018-12-09T11:38:56.988Z,1.13
2018-12-09T11:43:59.352Z,1.20
2018-12-09T11:49:01.654Z,1.20
2018-12-09T11:54:04.067Z,1.27
2018-12-09T11:59:06.301Z,1.27
2018-12-09T12:04:08.564Z,1.20
2018-12-09T12:09:10.804Z,1.00
2018-12-09T12:14:13.191Z,1.23
2018-12-09T12:19:15.458Z,1.20
2018-12-09T12:24:17.701Z,1.20
2018-12-09T12:29:19.942Z,1.30
2018-12-09T12:34:22.364Z,1.40
2018-12-09T12:39:24.894Z,1.93
2018-12-09T12:44:27.344Z,1.80
2018-12-09T12:49:29.779Z,1.97
2018-12-09T12:54:32.127Z,2.03
2018-12-09T12:59:34.377Z,1.80
2018-12-09T13:04:36.645Z,1.80
2018-12-09T13:09:38.950Z,1.80
2018-12-09T13:14:41.214Z,2.00
2018-12-09T13:19:43.479Z,1.93
2018-12-09T13:24:45.721Z,2.43
2018-12-09T13:29:47.962Z,1.63
2018-12-09T13:34:51.455Z,0.93
2018-12-09T13:39:53.687Z,1.40
2018-12-09T13:44:55.927Z,0.87
2018-12-09T13:49:58.212Z,0.90
2018-12-09T13:55:00.464Z,0.90
2018-12-09T14:00:03.273Z,0.80
2018-12-09T14:05:05.833Z,0.70
2018-12-09T14:10:08.201Z,0.80
2018-12-09T14:15:10.741Z,0.70
2018-12-09T14:20:13.107Z,0.70
2018-12-09T14:25:15.569Z,0.50
2018-12-09T14:30:17.850Z,0.57
2018-12-09T14:35:20.138Z,0.70
2018-12-09T14:40:22.503Z,0.80
2018-12-09T14:45:24.863Z,0.67
2018-12-09T14:50:27.103Z,0.80
2018-12-09T14:55:29.368Z,0.80
2018-12-09T15:00:31.654Z,0.70
2018-12-09T15:05:35.045Z,0.80
2018-12-09T15:10:37.267Z,0.70
2018-12-09T15:15:39.542Z,0.70
2018-12-09T15:20:41.809Z,0.70
2018-12-09T15:25:44.072Z,0.90
2018-12-09T15:30:46.336Z,0.90
2018-12-09T15:35:48.589Z,0.70
2018-12-09T15:40:51.994Z,0.70
2018-12-09T15:45:54.239Z,0.77
2018-12-09T15:50:56.651Z,0.77
2018-12-09T15:55:58.933Z,0.90
2018-12-09T16:01:01.200Z,0.60
2018-12-09T16:06:03.596Z,0.70
2018-12-09T16:11:05.883Z,0.90
2018-12-09T16:16:08.152Z,0.90
2018-12-09T16:21:10.454Z,1.00
2018-12-09T16:26:12.764Z,0.77
2018-12-09T16:31:14.993Z,1.00
2018-12-09T16:36:17.216Z,0.90
2018-12-09T16:41:19.511Z,0.80
2018-12-09T16:46:21.775Z,1.07
2018-12-09T16:51:24.031Z,1.00
2018-12-09T16:56:26.366Z,1.00
2018-12-09T17:01:29.727Z,1.00
2018-12-09T17:06:31.965Z,1.00
2018-12-09T17:11:34.384Z,0.93
2018-12-09T17:16:36.627Z,1.00
2018-12-09T17:21:40.272Z,1.07
2018-12-09T17:26:42.552Z,1.00
2018-12-09T17:31:45.615Z,0.80
2018-12-09T17:36:48.029Z,1.00
2018-12-09T17:41:51.861Z,1.20
2018-12-09T17:46:54.170Z,1.10
2018-12-09T17:51:56.520Z,1.57
2018-12-09T17:56:58.792Z,1.30
2018-12-09T18:02:01.043Z,1.20
2018-12-09T18:07:03.353Z,1.30
2018-12-09T18:12:05.764Z,1.43
2018-12-09T18:17:09.193Z,1.47
2018-12-09T18:22:11.457Z,1.30
2018-12-09T18:27:13.684Z,1.37
2018-12-09T18:32:16.248Z,1.30
2018-12-09T18:37:18.980Z,1.20
2018-12-09T18:42:21.238Z,1.50
2018-12-09T18:47:23.472Z,1.40
2018-12-09T18:52:25.735Z,1.40
2018-12-09T18:57:28.038Z,1.30
2018-12-09T19:02:30.587Z,1.77
2018-12-09T19:07:32.951Z,1.20
2018-12-09T19:12:35.230Z,1.37
2018-12-09T19:17:37.553Z,1.20
2018-12-09T19:22:40.134Z,1.37
2018-12-09T19:27:42.383Z,1.27
2018-12-09T19:32:44.820Z,0.90
2018-12-09T19:37:47.177Z,1.20
2018-12-09T19:42:49.484Z,1.43
2018-12-09T19:47:51.793Z,1.40
2018-12-09T19:52:54.091Z,1.20
2018-12-09T19:57:56.334Z,1.40
2018-12-09T20:02:58.604Z,1.40
2018-12-09T20:08:00.891Z,1.60
2018-12-09T20:13:03.201Z,1.70
2018-12-09T20:18:06.549Z,1.43
2018-12-09T20:23:08.786Z,1.43
2018-12-09T20:28:11.108Z,1.70
2018-12-09T20:33:13.366Z,1.67
2018-12-09T20:38:15.679Z,1.70
2018-12-09T20:43:17.912Z,1.80
2018-12-09T20:48:20.181Z,1.60
2018-12-09T20:53:22.480Z,1.60
2018-12-09T20:58:24.951Z,1.77
2018-12-09T21:03:27.223Z,1.53
2018-12-09T21:08:29.564Z,1.90
2018-12-09T21:13:32.645Z,1.33
2018-12-09T21:18:34.874Z,1.70
2018-12-09T21:23:37.757Z,1.87
2018-12-09T21:28:39.996Z,1.97
2018-12-09T21:33:42.311Z,1.50
2018-12-09T21:38:44.575Z,1.10
2018-12-09T21:43:46.803Z,1.10
2018-12-09T21:48:49.043Z,1.03
2018-12-09T21:53:51.319Z,1.10
2018-12-09T21:58:53.602Z,0.90
2018-12-09T22:03:55.917Z,0.90
2018-12-09T22:08:58.239Z,0.90
2018-12-09T22:14:00.483Z,1.50
2018-12-09T22:19:02.925Z,2.00
2018-12-09T22:24:05.181Z,2.23
2018-12-09T22:29:07.430Z,2.00
2018-12-09T22:34:09.693Z,1.77
2018-12-09T22:39:12.169Z,1.83
2018-12-09T22:44:14.499Z,1.77
2018-12-09T22:49:16.819Z,1.30
2018-12-09T22:54:19.065Z,1.30
2018-12-09T22:59:21.383Z,1.50
2018-12-09T23:04:24.007Z,1.70
2018-12-09T23:09:26.253Z,1.63
2018-12-09T23:14:28.704Z,1.20
2018-12-09T23:19:31.333Z,1.20
2018-12-09T23:24:33.620Z,1.53
2018-12-09T23:29:36.091Z,2.27
2018-12-09T23:34:38.367Z,1.53
2018-12-09T23:39:40.743Z,1.40
2018-12-09T23:44:43.128Z,1.33
2018-12-09T23:49:46.099Z,1.53
2018-12-09T23:54:48.342Z,1.53
2018-12-09T23:59:50.587Z,1.20
